sensor_id;sensor_type;location;lat;lon;timestamp;temperature;humidity
20726;DHT22;10524;48.132;8.518;2022-12-07T00:00:38;0.90;99.90
20726;DHT22;10524;48.132;8.518;2022-12-07T00:03:04;0.90;99.90
20726;DHT22;10524;48.132;8.518;2022-12-07T00:05:30;0.90;99.90
20726;DHT22;10524;48.132;8.518;2022-12-07T00:07:55;0.90;99.90
20726;DHT22;10524;48.132;8.518;2022-12-07T00:10:21;0.90;99.90
20726;DHT22;10524;48.132;8.518;2022-12-07T00:12:47;0.90;99.90
20726;DHT22;10524;48.132;8.518;2022-12-07T00:15:12;0.90;99.90
20726;DHT22;10524;48.132;8.518;2022-12-07T00:17:38;0.90;99.90
20726;DHT22;10524;48.132;8.518;2022-12-07T00:20:04;0.90;99.90
20726;DHT22;10524;48.132;8.518;2022-12-07T00:22:30;0.90;99.90
20726;DHT22;10524;48.132;8.518;2022-12-07T00:24:55;0.90;99.90
20726;DHT22;10524;48.132;8.518;2022-12-07T00:27:21;0.90;99.90
20726;DHT22;10524;48.132;8.518;2022-12-07T00:29:47;0.90;99.90
20726;DHT22;10524;48.132;8.518;2022-12-07T00:32:12;0.90;99.90
20726;DHT22;10524;48.132;8.518;2022-12-07T00:34:38;0.90;99.90
20726;DHT22;10524;48.132;8.518;2022-12-07T00:37:03;0.90;99.90
20726;DHT22;10524;48.132;8.518;2022-12-07T00:39:29;0.90;99.90
20726;DHT22;10524;48.132;8.518;2022-12-07T00:41:55;0.90;99.90
20726;DHT22;10524;48.132;8.518;2022-12-07T00:44:20;1.00;99.90
20726;DHT22;10524;48.132;8.518;2022-12-07T00:46:46;1.00;99.90
20726;DHT22;10524;48.132;8.518;2022-12-07T00:49:11;1.00;99.90
20726;DHT22;10524;48.132;8.518;2022-12-07T00:51:37;1.00;99.90
20726;DHT22;10524;48.132;8.518;2022-12-07T00:54:03;1.00;99.90
20726;DHT22;10524;48.132;8.518;2022-12-07T00:56:29;1.00;99.90
20726;DHT22;10524;48.132;8.518;2022-12-07T00:58:59;1.00;99.90
20726;DHT22;10524;48.132;8.518;2022-12-07T01:01:27;1.00;99.90
20726;DHT22;10524;48.132;8.518;2022-12-07T01:03:53;0.90;99.90
20726;DHT22;10524;48.132;8.518;2022-12-07T01:06:21;1.00;99.90
20726;DHT22;10524;48.132;8.518;2022-12-07T01:08:47;1.00;99.90
20726;DHT22;10524;48.132;8.518;2022-12-07T01:11:15;0.90;99.90
20726;DHT22;10524;48.132;8.518;2022-12-07T01:13:42;1.00;99.90
20726;DHT22;10524;48.132;8.518;2022-12-07T01:16:07;1.00;99.90
20726;DHT22;10524;48.132;8.518;2022-12-07T01:18:35;0.90;99.90
20726;DHT22;10524;48.132;8.518;2022-12-07T01:21:08;1.00;99.90
20726;DHT22;10524;48.132;8.518;2022-12-07T01:23:35;1.00;99.90
20726;DHT22;10524;48.132;8.518;2022-12-07T01:26:03;0.90;99.90
20726;DHT22;10524;48.132;8.518;2022-12-07T01:28:29;0.90;99.90
20726;DHT22;10524;48.132;8.518;2022-12-07T01:31:25;0.90;99.90
20726;DHT22;10524;48.132;8.518;2022-12-07T01:33:54;0.90;99.90
20726;DHT22;10524;48.132;8.518;2022-12-07T01:36:27;0.90;99.90
20726;DHT22;10524;48.132;8.518;2022-12-07T01:38:59;0.90;99.90
20726;DHT22;10524;48.132;8.518;2022-12-07T01:41:29;0.90;99.90
20726;DHT22;10524;48.132;8.518;2022-12-07T01:46:42;0.90;99.90
20726;DHT22;10524;48.132;8.518;2022-12-07T01:49:12;0.90;99.90
20726;DHT22;10524;48.132;8.518;2022-12-07T01:51:41;0.90;99.90
20726;DHT22;10524;48.132;8.518;2022-12-07T01:54:08;0.90;99.90
20726;DHT22;10524;48.132;8.518;2022-12-07T01:56:35;0.90;99.90
20726;DHT22;10524;48.132;8.518;2022-12-07T01:59:02;0.90;99.90
20726;DHT22;10524;48.132;8.518;2022-12-07T02:01:28;0.90;99.90
20726;DHT22;10524;48.132;8.518;2022-12-07T02:03:54;1.00;99.90
20726;DHT22;10524;48.132;8.518;2022-12-07T02:06:23;1.00;99.90
20726;DHT22;10524;48.132;8.518;2022-12-07T02:08:49;0.90;99.90
20726;DHT22;10524;48.132;8.518;2022-12-07T02:11:16;1.00;99.90
20726;DHT22;10524;48.132;8.518;2022-12-07T02:13:43;1.00;99.90
20726;DHT22;10524;48.132;8.518;2022-12-07T02:16:20;0.90;99.90
20726;DHT22;10524;48.132;8.518;2022-12-07T02:32:35;0.90;99.90
20726;DHT22;10524;48.132;8.518;2022-12-07T02:35:24;0.90;99.90
20726;DHT22;10524;48.132;8.518;2022-12-07T02:43:06;1.00;99.90
20726;DHT22;10524;48.132;8.518;2022-12-07T02:45:34;1.00;99.90
20726;DHT22;10524;48.132;8.518;2022-12-07T02:48:00;1.00;99.90
20726;DHT22;10524;48.132;8.518;2022-12-07T02:50:27;0.90;99.90
20726;DHT22;10524;48.132;8.518;2022-12-07T02:52:54;0.90;99.90
20726;DHT22;10524;48.132;8.518;2022-12-07T02:55:24;0.90;99.90
20726;DHT22;10524;48.132;8.518;2022-12-07T03:00:23;0.90;99.90
20726;DHT22;10524;48.132;8.518;2022-12-07T03:03:09;0.90;99.90
20726;DHT22;10524;48.132;8.518;2022-12-07T03:06:04;0.90;99.90
20726;DHT22;10524;48.132;8.518;2022-12-07T03:11:29;0.90;99.90
20726;DHT22;10524;48.132;8.518;2022-12-07T03:14:16;0.80;99.90
20726;DHT22;10524;48.132;8.518;2022-12-07T03:16:47;0.80;99.90
20726;DHT22;10524;48.132;8.518;2022-12-07T03:19:19;0.80;99.90
20726;DHT22;10524;48.132;8.518;2022-12-07T03:22:02;0.80;99.90
20726;DHT22;10524;48.132;8.518;2022-12-07T03:24:45;0.70;99.90
20726;DHT22;10524;48.132;8.518;2022-12-07T03:27:22;0.80;99.90
20726;DHT22;10524;48.132;8.518;2022-12-07T03:29:54;0.70;99.90
20726;DHT22;10524;48.132;8.518;2022-12-07T03:32:48;0.70;99.90
20726;DHT22;10524;48.132;8.518;2022-12-07T03:35:25;0.80;99.90
20726;DHT22;10524;48.132;8.518;2022-12-07T03:40:52;0.80;99.90
20726;DHT22;10524;48.132;8.518;2022-12-07T03:43:20;0.80;99.90
20726;DHT22;10524;48.132;8.518;2022-12-07T03:48:36;0.80;99.90
20726;DHT22;10524;48.132;8.518;2022-12-07T03:54:05;0.80;99.90
20726;DHT22;10524;48.132;8.518;2022-12-07T03:56:34;0.70;99.90
20726;DHT22;10524;48.132;8.518;2022-12-07T03:59:00;0.70;99.90
20726;DHT22;10524;48.132;8.518;2022-12-07T04:01:26;0.70;99.90
20726;DHT22;10524;48.132;8.518;2022-12-07T04:03:52;0.70;99.90
20726;DHT22;10524;48.132;8.518;2022-12-07T04:06:18;0.70;99.90
20726;DHT22;10524;48.132;8.518;2022-12-07T04:08:44;0.60;99.90
20726;DHT22;10524;48.132;8.518;2022-12-07T04:11:09;0.60;99.90
20726;DHT22;10524;48.132;8.518;2022-12-07T04:13:35;0.60;99.90
20726;DHT22;10524;48.132;8.518;2022-12-07T04:16:21;0.70;99.90
20726;DHT22;10524;48.132;8.518;2022-12-07T04:18:46;0.70;99.90
20726;DHT22;10524;48.132;8.518;2022-12-07T04:21:12;0.70;99.90
20726;DHT22;10524;48.132;8.518;2022-12-07T04:23:38;0.70;99.90
20726;DHT22;10524;48.132;8.518;2022-12-07T04:26:03;0.60;99.90
20726;DHT22;10524;48.132;8.518;2022-12-07T04:28:29;0.60;99.90
20726;DHT22;10524;48.132;8.518;2022-12-07T04:30:54;0.70;99.90
20726;DHT22;10524;48.132;8.518;2022-12-07T04:33:20;0.60;99.90
20726;DHT22;10524;48.132;8.518;2022-12-07T04:35:46;0.60;99.90
20726;DHT22;10524;48.132;8.518;2022-12-07T04:38:11;0.60;99.90
20726;DHT22;10524;48.132;8.518;2022-12-07T04:40:37;0.60;99.90
20726;DHT22;10524;48.132;8.518;2022-12-07T04:43:02;0.60;99.90
20726;DHT22;10524;48.132;8.518;2022-12-07T04:45:28;0.50;99.90
20726;DHT22;10524;48.132;8.518;2022-12-07T04:47:54;0.50;99.90
20726;DHT22;10524;48.132;8.518;2022-12-07T04:50:19;0.40;99.90
20726;DHT22;10524;48.132;8.518;2022-12-07T04:52:45;0.40;99.90
20726;DHT22;10524;48.132;8.518;2022-12-07T04:55:11;0.40;99.90
20726;DHT22;10524;48.132;8.518;2022-12-07T04:57:36;0.40;99.90
20726;DHT22;10524;48.132;8.518;2022-12-07T05:00:03;0.40;99.90
20726;DHT22;10524;48.132;8.518;2022-12-07T05:02:28;0.40;99.90
20726;DHT22;10524;48.132;8.518;2022-12-07T05:04:54;0.40;99.90
20726;DHT22;10524;48.132;8.518;2022-12-07T05:07:20;0.40;99.90
20726;DHT22;10524;48.132;8.518;2022-12-07T05:09:45;0.30;99.90
20726;DHT22;10524;48.132;8.518;2022-12-07T05:12:11;0.30;99.90
20726;DHT22;10524;48.132;8.518;2022-12-07T05:14:36;0.30;99.90
20726;DHT22;10524;48.132;8.518;2022-12-07T05:17:02;0.20;99.90
20726;DHT22;10524;48.132;8.518;2022-12-07T05:19:28;0.20;99.90
20726;DHT22;10524;48.132;8.518;2022-12-07T05:21:53;0.20;99.90
20726;DHT22;10524;48.132;8.518;2022-12-07T05:24:19;0.20;99.90
20726;DHT22;10524;48.132;8.518;2022-12-07T05:26:45;0.20;99.90
20726;DHT22;10524;48.132;8.518;2022-12-07T05:29:15;0.20;99.90
20726;DHT22;10524;48.132;8.518;2022-12-07T05:31:41;0.20;99.90
20726;DHT22;10524;48.132;8.518;2022-12-07T05:34:07;0.10;99.90
20726;DHT22;10524;48.132;8.518;2022-12-07T05:36:32;0.10;99.90
20726;DHT22;10524;48.132;8.518;2022-12-07T05:38:58;0.10;99.90
20726;DHT22;10524;48.132;8.518;2022-12-07T05:41:25;0.10;99.90
20726;DHT22;10524;48.132;8.518;2022-12-07T05:44:29;0.10;99.90
20726;DHT22;10524;48.132;8.518;2022-12-07T05:46:55;0.00;99.90
20726;DHT22;10524;48.132;8.518;2022-12-07T05:49:21;0.00;99.90
20726;DHT22;10524;48.132;8.518;2022-12-07T05:51:47;-0.10;99.90
20726;DHT22;10524;48.132;8.518;2022-12-07T05:54:12;-0.10;99.90
20726;DHT22;10524;48.132;8.518;2022-12-07T05:56:38;-0.10;99.90
20726;DHT22;10524;48.132;8.518;2022-12-07T05:59:04;0.00;99.90
20726;DHT22;10524;48.132;8.518;2022-12-07T06:01:49;-0.10;99.90
20726;DHT22;10524;48.132;8.518;2022-12-07T06:04:15;-0.10;99.90
20726;DHT22;10524;48.132;8.518;2022-12-07T06:06:41;-0.10;99.90
20726;DHT22;10524;48.132;8.518;2022-12-07T06:09:06;-0.20;99.90
20726;DHT22;10524;48.132;8.518;2022-12-07T06:11:32;-0.20;99.90
20726;DHT22;10524;48.132;8.518;2022-12-07T06:14:16;-0.20;99.90
20726;DHT22;10524;48.132;8.518;2022-12-07T06:16:42;-0.30;99.90
20726;DHT22;10524;48.132;8.518;2022-12-07T06:19:08;-0.30;99.90
20726;DHT22;10524;48.132;8.518;2022-12-07T06:21:34;-0.50;99.90
20726;DHT22;10524;48.132;8.518;2022-12-07T06:24:00;-0.60;99.90
20726;DHT22;10524;48.132;8.518;2022-12-07T06:26:25;-0.70;99.90
20726;DHT22;10524;48.132;8.518;2022-12-07T06:28:51;-0.80;99.90
20726;DHT22;10524;48.132;8.518;2022-12-07T06:31:17;-0.90;99.90
20726;DHT22;10524;48.132;8.518;2022-12-07T06:33:43;-1.00;99.90
20726;DHT22;10524;48.132;8.518;2022-12-07T06:36:09;-1.10;99.90
20726;DHT22;10524;48.132;8.518;2022-12-07T06:38:35;-1.20;99.90
20726;DHT22;10524;48.132;8.518;2022-12-07T06:41:00;-1.30;99.90
20726;DHT22;10524;48.132;8.518;2022-12-07T06:43:26;-1.50;99.90
20726;DHT22;10524;48.132;8.518;2022-12-07T06:45:52;-1.60;99.90
20726;DHT22;10524;48.132;8.518;2022-12-07T06:48:18;-1.70;99.90
20726;DHT22;10524;48.132;8.518;2022-12-07T06:50:47;-1.80;99.90
20726;DHT22;10524;48.132;8.518;2022-12-07T06:53:13;-2.00;99.90
20726;DHT22;10524;48.132;8.518;2022-12-07T06:55:39;-2.10;99.90
20726;DHT22;10524;48.132;8.518;2022-12-07T06:58:05;-2.10;99.90
20726;DHT22;10524;48.132;8.518;2022-12-07T07:00:30;-2.10;99.90
20726;DHT22;10524;48.132;8.518;2022-12-07T07:02:56;-2.20;99.90
20726;DHT22;10524;48.132;8.518;2022-12-07T07:05:22;-2.30;99.90
20726;DHT22;10524;48.132;8.518;2022-12-07T07:07:50;-2.30;99.90
20726;DHT22;10524;48.132;8.518;2022-12-07T07:10:16;-2.40;99.90
20726;DHT22;10524;48.132;8.518;2022-12-07T07:12:42;-2.40;99.90
20726;DHT22;10524;48.132;8.518;2022-12-07T07:15:08;-2.30;99.90
20726;DHT22;10524;48.132;8.518;2022-12-07T07:17:34;-2.20;99.90
20726;DHT22;10524;48.132;8.518;2022-12-07T07:19:59;-2.20;99.90
20726;DHT22;10524;48.132;8.518;2022-12-07T07:22:25;-2.40;99.90
20726;DHT22;10524;48.132;8.518;2022-12-07T07:24:51;-2.60;99.90
20726;DHT22;10524;48.132;8.518;2022-12-07T07:27:16;-2.60;99.90
20726;DHT22;10524;48.132;8.518;2022-12-07T07:29:42;-2.50;99.90
20726;DHT22;10524;48.132;8.518;2022-12-07T07:32:08;-2.30;99.90
20726;DHT22;10524;48.132;8.518;2022-12-07T07:34:33;-2.00;99.90
20726;DHT22;10524;48.132;8.518;2022-12-07T07:36:59;-1.30;99.90
20726;DHT22;10524;48.132;8.518;2022-12-07T07:39:25;-0.50;99.90
20726;DHT22;10524;48.132;8.518;2022-12-07T07:41:50;-0.10;99.90
20726;DHT22;10524;48.132;8.518;2022-12-07T07:44:16;0.60;99.90
20726;DHT22;10524;48.132;8.518;2022-12-07T07:46:42;2.00;99.90
20726;DHT22;10524;48.132;8.518;2022-12-07T07:49:09;3.30;99.90
20726;DHT22;10524;48.132;8.518;2022-12-07T07:51:35;4.20;99.90
20726;DHT22;10524;48.132;8.518;2022-12-07T07:54:01;4.90;99.90
20726;DHT22;10524;48.132;8.518;2022-12-07T07:56:26;5.80;99.90
20726;DHT22;10524;48.132;8.518;2022-12-07T07:58:53;7.00;99.90
20726;DHT22;10524;48.132;8.518;2022-12-07T08:01:18;7.40;99.90
20726;DHT22;10524;48.132;8.518;2022-12-07T08:03:48;8.00;99.90
20726;DHT22;10524;48.132;8.518;2022-12-07T08:06:14;8.70;99.90
20726;DHT22;10524;48.132;8.518;2022-12-07T08:08:39;9.80;99.90
20726;DHT22;10524;48.132;8.518;2022-12-07T08:11:06;11.10;99.90
20726;DHT22;10524;48.132;8.518;2022-12-07T08:13:32;12.10;99.90
20726;DHT22;10524;48.132;8.518;2022-12-07T08:15:58;12.30;99.90
20726;DHT22;10524;48.132;8.518;2022-12-07T08:18:24;12.70;99.90
20726;DHT22;10524;48.132;8.518;2022-12-07T08:20:49;13.10;99.90
20726;DHT22;10524;48.132;8.518;2022-12-07T08:23:15;13.00;99.90
20726;DHT22;10524;48.132;8.518;2022-12-07T08:25:41;13.00;99.90
20726;DHT22;10524;48.132;8.518;2022-12-07T08:28:07;13.30;99.90
20726;DHT22;10524;48.132;8.518;2022-12-07T08:30:32;13.00;99.90
20726;DHT22;10524;48.132;8.518;2022-12-07T08:32:58;12.90;99.90
20726;DHT22;10524;48.132;8.518;2022-12-07T08:35:24;12.40;99.90
20726;DHT22;10524;48.132;8.518;2022-12-07T08:37:50;11.90;99.90
20726;DHT22;10524;48.132;8.518;2022-12-07T08:40:16;12.30;99.90
20726;DHT22;10524;48.132;8.518;2022-12-07T08:42:48;12.90;99.90
20726;DHT22;10524;48.132;8.518;2022-12-07T08:45:14;13.70;99.90
20726;DHT22;10524;48.132;8.518;2022-12-07T08:47:46;13.30;99.90
20726;DHT22;10524;48.132;8.518;2022-12-07T08:50:13;12.90;99.90
20726;DHT22;10524;48.132;8.518;2022-12-07T08:52:40;12.60;99.90
20726;DHT22;10524;48.132;8.518;2022-12-07T08:55:07;12.90;99.90
20726;DHT22;10524;48.132;8.518;2022-12-07T08:57:35;13.90;99.90
20726;DHT22;10524;48.132;8.518;2022-12-07T09:00:02;14.30;99.90
20726;DHT22;10524;48.132;8.518;2022-12-07T09:02:28;14.80;99.90
20726;DHT22;10524;48.132;8.518;2022-12-07T09:04:55;14.60;99.90
20726;DHT22;10524;48.132;8.518;2022-12-07T09:07:20;15.00;99.90
20726;DHT22;10524;48.132;8.518;2022-12-07T09:09:46;15.90;99.90
20726;DHT22;10524;48.132;8.518;2022-12-07T09:12:12;16.60;99.90
20726;DHT22;10524;48.132;8.518;2022-12-07T09:14:37;16.70;99.90
20726;DHT22;10524;48.132;8.518;2022-12-07T09:17:10;16.50;99.90
20726;DHT22;10524;48.132;8.518;2022-12-07T09:19:37;16.50;99.90
20726;DHT22;10524;48.132;8.518;2022-12-07T09:22:04;16.20;99.90
20726;DHT22;10524;48.132;8.518;2022-12-07T09:24:33;15.30;99.90
20726;DHT22;10524;48.132;8.518;2022-12-07T09:26:58;14.70;99.90
20726;DHT22;10524;48.132;8.518;2022-12-07T09:29:24;14.20;99.90
20726;DHT22;10524;48.132;8.518;2022-12-07T09:31:51;13.90;99.90
20726;DHT22;10524;48.132;8.518;2022-12-07T09:34:17;15.00;99.90
20726;DHT22;10524;48.132;8.518;2022-12-07T09:36:43;17.30;99.90
20726;DHT22;10524;48.132;8.518;2022-12-07T09:39:09;17.30;99.90
20726;DHT22;10524;48.132;8.518;2022-12-07T09:41:38;18.00;99.90
20726;DHT22;10524;48.132;8.518;2022-12-07T09:44:10;17.40;99.90
20726;DHT22;10524;48.132;8.518;2022-12-07T09:46:39;17.00;99.90
20726;DHT22;10524;48.132;8.518;2022-12-07T09:49:19;17.70;99.90
20726;DHT22;10524;48.132;8.518;2022-12-07T09:51:46;18.60;99.90
20726;DHT22;10524;48.132;8.518;2022-12-07T09:54:14;18.50;99.90
20726;DHT22;10524;48.132;8.518;2022-12-07T09:56:40;18.10;99.90
20726;DHT22;10524;48.132;8.518;2022-12-07T09:59:06;18.60;99.90
20726;DHT22;10524;48.132;8.518;2022-12-07T10:01:34;17.90;99.90
20726;DHT22;10524;48.132;8.518;2022-12-07T10:04:21;17.80;99.90
20726;DHT22;10524;48.132;8.518;2022-12-07T10:06:48;16.30;99.90
20726;DHT22;10524;48.132;8.518;2022-12-07T10:09:16;15.80;99.90
20726;DHT22;10524;48.132;8.518;2022-12-07T10:14:30;17.70;99.90
20726;DHT22;10524;48.132;8.518;2022-12-07T10:16:56;18.10;99.90
20726;DHT22;10524;48.132;8.518;2022-12-07T10:19:30;17.90;99.90
20726;DHT22;10524;48.132;8.518;2022-12-07T10:22:15;18.20;99.90
20726;DHT22;10524;48.132;8.518;2022-12-07T10:24:42;18.70;99.60
20726;DHT22;10524;48.132;8.518;2022-12-07T10:27:25;18.10;99.90
20726;DHT22;10524;48.132;8.518;2022-12-07T10:29:53;18.30;99.50
20726;DHT22;10524;48.132;8.518;2022-12-07T10:34:44;18.10;99.20
20726;DHT22;10524;48.132;8.518;2022-12-07T10:39:56;16.90;99.50
20726;DHT22;10524;48.132;8.518;2022-12-07T10:42:30;15.50;99.90
20726;DHT22;10524;48.132;8.518;2022-12-07T10:47:48;15.10;99.90
20726;DHT22;10524;48.132;8.518;2022-12-07T11:04:02;20.50;97.40
20726;DHT22;10524;48.132;8.518;2022-12-07T11:06:37;20.50;96.90
20726;DHT22;10524;48.132;8.518;2022-12-07T11:12:05;20.20;96.20
20726;DHT22;10524;48.132;8.518;2022-12-07T11:14:47;19.60;97.10
20726;DHT22;10524;48.132;8.518;2022-12-07T11:25:39;19.20;96.60
20726;DHT22;10524;48.132;8.518;2022-12-07T11:28:24;19.00;97.30
20726;DHT22;10524;48.132;8.518;2022-12-07T11:31:05;18.60;97.40
20726;DHT22;10524;48.132;8.518;2022-12-07T11:33:50;19.20;96.90
20726;DHT22;10524;48.132;8.518;2022-12-07T11:36:44;19.90;96.60
20726;DHT22;10524;48.132;8.518;2022-12-07T11:41:45;20.90;95.80
20726;DHT22;10524;48.132;8.518;2022-12-07T11:47:08;18.70;96.10
20726;DHT22;10524;48.132;8.518;2022-12-07T11:49:58;18.00;97.30
20726;DHT22;10524;48.132;8.518;2022-12-07T11:52:47;18.60;97.10
20726;DHT22;10524;48.132;8.518;2022-12-07T11:55:22;19.40;96.30
20726;DHT22;10524;48.132;8.518;2022-12-07T11:57:56;19.00;96.20
20726;DHT22;10524;48.132;8.518;2022-12-07T12:00:23;19.10;96.80
20726;DHT22;10524;48.132;8.518;2022-12-07T12:03:08;19.10;96.40
20726;DHT22;10524;48.132;8.518;2022-12-07T12:05:36;19.00;96.30
20726;DHT22;10524;48.132;8.518;2022-12-07T12:08:26;17.00;96.90
20726;DHT22;10524;48.132;8.518;2022-12-07T12:11:16;15.00;98.40
20726;DHT22;10524;48.132;8.518;2022-12-07T12:14:03;14.90;98.60
20726;DHT22;10524;48.132;8.518;2022-12-07T12:16:58;12.10;99.90
20726;DHT22;10524;48.132;8.518;2022-12-07T12:22:30;7.30;99.90
20726;DHT22;10524;48.132;8.518;2022-12-07T12:24:58;6.10;99.90
20726;DHT22;10524;48.132;8.518;2022-12-07T12:27:31;5.30;99.90
20726;DHT22;10524;48.132;8.518;2022-12-07T12:30:00;4.90;99.90
20726;DHT22;10524;48.132;8.518;2022-12-07T12:32:40;4.70;99.90
20726;DHT22;10524;48.132;8.518;2022-12-07T12:37:53;7.90;99.90
20726;DHT22;10524;48.132;8.518;2022-12-07T12:42:49;6.40;99.90
20726;DHT22;10524;48.132;8.518;2022-12-07T12:45:31;5.60;99.90
20726;DHT22;10524;48.132;8.518;2022-12-07T12:48:00;5.10;99.90
20726;DHT22;10524;48.132;8.518;2022-12-07T12:50:37;5.30;99.90
20726;DHT22;10524;48.132;8.518;2022-12-07T12:53:25;5.60;99.90
20726;DHT22;10524;48.132;8.518;2022-12-07T12:56:26;5.50;99.90
20726;DHT22;10524;48.132;8.518;2022-12-07T13:01:54;5.80;99.90
20726;DHT22;10524;48.132;8.518;2022-12-07T13:04:34;5.90;99.90
20726;DHT22;10524;48.132;8.518;2022-12-07T13:07:02;5.90;99.90
20726;DHT22;10524;48.132;8.518;2022-12-07T13:09:30;6.10;99.90
20726;DHT22;10524;48.132;8.518;2022-12-07T13:12:13;6.20;99.90
20726;DHT22;10524;48.132;8.518;2022-12-07T13:14:40;6.10;99.90
20726;DHT22;10524;48.132;8.518;2022-12-07T13:17:11;6.00;99.90
20726;DHT22;10524;48.132;8.518;2022-12-07T13:25:33;5.50;99.90
20726;DHT22;10524;48.132;8.518;2022-12-07T13:28:09;5.30;99.90
20726;DHT22;10524;48.132;8.518;2022-12-07T13:31:13;5.20;99.90
20726;DHT22;10524;48.132;8.518;2022-12-07T13:33:43;5.10;99.90
20726;DHT22;10524;48.132;8.518;2022-12-07T13:36:39;5.00;99.90
20726;DHT22;10524;48.132;8.518;2022-12-07T13:41:42;5.00;99.90
20726;DHT22;10524;48.132;8.518;2022-12-07T13:44:16;5.00;99.90
20726;DHT22;10524;48.132;8.518;2022-12-07T13:47:17;5.20;99.90
20726;DHT22;10524;48.132;8.518;2022-12-07T13:49:49;5.20;99.90
20726;DHT22;10524;48.132;8.518;2022-12-07T13:52:24;5.30;99.90
20726;DHT22;10524;48.132;8.518;2022-12-07T13:57:16;5.10;99.90
20726;DHT22;10524;48.132;8.518;2022-12-07T13:59:42;4.90;99.90
20726;DHT22;10524;48.132;8.518;2022-12-07T14:02:34;4.80;99.90
20726;DHT22;10524;48.132;8.518;2022-12-07T14:05:22;4.30;99.90
20726;DHT22;10524;48.132;8.518;2022-12-07T14:10:40;4.20;99.90
20726;DHT22;10524;48.132;8.518;2022-12-07T14:13:40;4.00;99.90
20726;DHT22;10524;48.132;8.518;2022-12-07T14:16:30;4.00;99.90
20726;DHT22;10524;48.132;8.518;2022-12-07T14:18:58;3.90;99.90
20726;DHT22;10524;48.132;8.518;2022-12-07T14:21:33;3.70;99.90
20726;DHT22;10524;48.132;8.518;2022-12-07T14:24:19;3.80;99.90
20726;DHT22;10524;48.132;8.518;2022-12-07T14:26:47;3.70;99.90
20726;DHT22;10524;48.132;8.518;2022-12-07T14:31:52;3.50;99.90
20726;DHT22;10524;48.132;8.518;2022-12-07T14:34:20;3.40;99.90
20726;DHT22;10524;48.132;8.518;2022-12-07T14:36:46;3.30;99.90
20726;DHT22;10524;48.132;8.518;2022-12-07T14:39:12;3.20;99.90
20726;DHT22;10524;48.132;8.518;2022-12-07T14:41:37;3.20;99.90
20726;DHT22;10524;48.132;8.518;2022-12-07T14:44:20;3.10;99.90
20726;DHT22;10524;48.132;8.518;2022-12-07T14:46:47;3.10;99.90
20726;DHT22;10524;48.132;8.518;2022-12-07T14:49:12;3.00;99.90
20726;DHT22;10524;48.132;8.518;2022-12-07T14:51:39;3.00;99.90
20726;DHT22;10524;48.132;8.518;2022-12-07T14:54:07;2.90;99.90
20726;DHT22;10524;48.132;8.518;2022-12-07T14:56:38;2.90;99.90
20726;DHT22;10524;48.132;8.518;2022-12-07T14:59:03;2.80;99.90
20726;DHT22;10524;48.132;8.518;2022-12-07T15:01:29;2.70;99.90
20726;DHT22;10524;48.132;8.518;2022-12-07T15:03:55;2.60;99.90
20726;DHT22;10524;48.132;8.518;2022-12-07T15:06:20;2.50;99.90
20726;DHT22;10524;48.132;8.518;2022-12-07T15:08:46;2.40;99.90
20726;DHT22;10524;48.132;8.518;2022-12-07T15:11:16;2.30;99.90
20726;DHT22;10524;48.132;8.518;2022-12-07T15:13:42;2.20;99.90
20726;DHT22;10524;48.132;8.518;2022-12-07T15:16:26;2.10;99.90
20726;DHT22;10524;48.132;8.518;2022-12-07T15:18:51;2.10;99.90
20726;DHT22;10524;48.132;8.518;2022-12-07T15:21:17;2.00;99.90
20726;DHT22;10524;48.132;8.518;2022-12-07T15:23:43;1.90;99.90
20726;DHT22;10524;48.132;8.518;2022-12-07T15:26:10;1.80;99.90
20726;DHT22;10524;48.132;8.518;2022-12-07T15:28:36;1.70;99.90
20726;DHT22;10524;48.132;8.518;2022-12-07T15:31:02;1.70;99.90
20726;DHT22;10524;48.132;8.518;2022-12-07T15:33:27;1.60;99.90
20726;DHT22;10524;48.132;8.518;2022-12-07T15:35:53;1.50;99.90
20726;DHT22;10524;48.132;8.518;2022-12-07T15:38:19;1.40;99.90
20726;DHT22;10524;48.132;8.518;2022-12-07T15:40:48;1.40;99.90
20726;DHT22;10524;48.132;8.518;2022-12-07T15:43:13;1.40;99.90
20726;DHT22;10524;48.132;8.518;2022-12-07T15:45:57;1.30;99.90
20726;DHT22;10524;48.132;8.518;2022-12-07T15:48:24;1.30;99.90
20726;DHT22;10524;48.132;8.518;2022-12-07T15:50:50;1.30;99.90
20726;DHT22;10524;48.132;8.518;2022-12-07T15:53:16;1.30;99.90
20726;DHT22;10524;48.132;8.518;2022-12-07T15:55:42;1.30;99.90
20726;DHT22;10524;48.132;8.518;2022-12-07T15:58:08;1.20;99.90
20726;DHT22;10524;48.132;8.518;2022-12-07T16:00:34;1.20;99.90
20726;DHT22;10524;48.132;8.518;2022-12-07T16:02:59;1.20;99.90
20726;DHT22;10524;48.132;8.518;2022-12-07T16:05:25;1.20;99.90
20726;DHT22;10524;48.132;8.518;2022-12-07T16:07:50;1.10;99.90
20726;DHT22;10524;48.132;8.518;2022-12-07T16:10:16;1.10;99.90
20726;DHT22;10524;48.132;8.518;2022-12-07T16:12:42;1.10;99.90
20726;DHT22;10524;48.132;8.518;2022-12-07T16:15:08;1.10;99.90
20726;DHT22;10524;48.132;8.518;2022-12-07T16:17:34;1.10;99.90
20726;DHT22;10524;48.132;8.518;2022-12-07T16:20:00;1.10;99.90
20726;DHT22;10524;48.132;8.518;2022-12-07T16:22:25;1.10;99.90
20726;DHT22;10524;48.132;8.518;2022-12-07T16:24:51;1.10;99.90
20726;DHT22;10524;48.132;8.518;2022-12-07T16:27:16;1.10;99.90
20726;DHT22;10524;48.132;8.518;2022-12-07T16:29:42;1.00;99.90
20726;DHT22;10524;48.132;8.518;2022-12-07T16:32:08;1.00;99.90
20726;DHT22;10524;48.132;8.518;2022-12-07T16:34:33;1.00;99.90
20726;DHT22;10524;48.132;8.518;2022-12-07T16:36:59;1.00;99.90
20726;DHT22;10524;48.132;8.518;2022-12-07T16:39:24;1.00;99.90
20726;DHT22;10524;48.132;8.518;2022-12-07T16:41:50;0.90;99.90
20726;DHT22;10524;48.132;8.518;2022-12-07T16:44:16;0.90;99.90
20726;DHT22;10524;48.132;8.518;2022-12-07T16:46:42;0.80;99.90
20726;DHT22;10524;48.132;8.518;2022-12-07T16:49:12;0.70;99.90
20726;DHT22;10524;48.132;8.518;2022-12-07T16:51:38;0.50;99.90
20726;DHT22;10524;48.132;8.518;2022-12-07T16:54:04;0.40;99.90
20726;DHT22;10524;48.132;8.518;2022-12-07T16:56:30;0.10;99.90
20726;DHT22;10524;48.132;8.518;2022-12-07T16:58:58;0.00;99.90
20726;DHT22;10524;48.132;8.518;2022-12-07T17:01:24;-0.20;99.90
20726;DHT22;10524;48.132;8.518;2022-12-07T17:03:49;-0.40;99.90
20726;DHT22;10524;48.132;8.518;2022-12-07T17:06:20;-0.50;99.90
20726;DHT22;10524;48.132;8.518;2022-12-07T17:08:47;-0.70;99.90
20726;DHT22;10524;48.132;8.518;2022-12-07T17:11:18;-0.90;99.90
20726;DHT22;10524;48.132;8.518;2022-12-07T17:13:44;-0.90;99.90
20726;DHT22;10524;48.132;8.518;2022-12-07T17:16:28;-1.00;99.90
20726;DHT22;10524;48.132;8.518;2022-12-07T17:18:54;-1.10;99.90
20726;DHT22;10524;48.132;8.518;2022-12-07T17:21:20;-1.20;99.90
20726;DHT22;10524;48.132;8.518;2022-12-07T17:23:47;-1.20;99.90
20726;DHT22;10524;48.132;8.518;2022-12-07T17:26:18;-1.40;99.90
20726;DHT22;10524;48.132;8.518;2022-12-07T17:28:44;-1.50;99.90
20726;DHT22;10524;48.132;8.518;2022-12-07T17:31:12;-1.50;99.90
20726;DHT22;10524;48.132;8.518;2022-12-07T17:33:38;-1.50;99.90
20726;DHT22;10524;48.132;8.518;2022-12-07T17:36:25;-1.50;99.90
20726;DHT22;10524;48.132;8.518;2022-12-07T17:38:51;-1.70;99.90